createdAt,value
2022-09-21T00:02:20.996Z,12.11
2022-09-21T00:04:51.144Z,12.15
2022-09-21T00:07:22.690Z,12.16
2022-09-21T00:09:53.082Z,12.13
2022-09-21T00:12:22.791Z,12.08
2022-09-21T00:14:52.033Z,12.05
2022-09-21T00:17:24.389Z,12.08
2022-09-21T00:19:53.852Z,12.05
2022-09-21T00:22:25.452Z,12.08
2022-09-21T00:24:57.497Z,11.59
2022-09-21T00:27:33.271Z,12.04
2022-09-21T00:30:04.502Z,12.02
2022-09-21T00:32:35.196Z,11.99
2022-09-21T00:35:05.487Z,11.88
2022-09-21T00:37:36.587Z,11.96
2022-09-21T00:40:06.591Z,11.94
2022-09-21T00:42:37.493Z,11.93
2022-09-21T00:45:21.197Z,11.93
2022-09-21T00:47:54.446Z,11.86
2022-09-21T00:50:26.132Z,11.88
2022-09-21T00:53:00.167Z,11.88
2022-09-21T00:55:37.448Z,11.84
2022-09-21T00:58:15.343Z,11.80
2022-09-21T01:00:44.720Z,11.87
2022-09-21T01:03:17.435Z,11.94
2022-09-21T01:05:47.100Z,11.95
2022-09-21T01:08:20.004Z,11.86
2022-09-21T01:11:08.510Z,11.78
2022-09-21T01:13:53.124Z,11.60
2022-09-21T01:16:32.817Z,11.65
2022-09-21T01:19:16.596Z,11.59
2022-09-21T01:21:53.285Z,11.59
2022-09-21T01:25:00.745Z,11.61
2022-09-21T01:27:43.053Z,11.57
2022-09-21T01:30:16.476Z,11.48
2022-09-21T01:32:53.234Z,11.46
2022-09-21T01:35:28.347Z,11.39
2022-09-21T01:38:03.999Z,11.37
2022-09-21T01:40:39.000Z,11.24
2022-09-21T01:43:12.647Z,11.29
2022-09-21T01:45:54.248Z,11.19
2022-09-21T01:48:27.154Z,11.08
2022-09-21T01:50:59.375Z,11.19
2022-09-21T01:53:37.811Z,11.16
2022-09-21T01:56:13.194Z,11.06
2022-09-21T01:58:47.418Z,11.17
2022-09-21T02:01:24.423Z,11.10
2022-09-21T02:04:00.251Z,11.11
2022-09-21T02:06:31.899Z,10.89
2022-09-21T02:09:01.091Z,11.01
2022-09-21T02:11:30.033Z,10.95
2022-09-21T02:14:01.385Z,11.00
2022-09-21T02:16:39.742Z,10.95
2022-09-21T02:19:15.791Z,11.04
2022-09-21T02:21:57.389Z,10.95
2022-09-21T02:24:36.799Z,10.93
2022-09-21T02:27:08.841Z,10.90
2022-09-21T02:29:48.491Z,10.85
2022-09-21T02:32:30.445Z,10.88
2022-09-21T02:35:05.049Z,10.80
2022-09-21T02:37:38.943Z,10.79
2022-09-21T02:40:23.954Z,10.77
2022-09-21T02:42:59.808Z,10.73
2022-09-21T02:45:34.339Z,10.73
2022-09-21T02:48:10.625Z,10.64
2022-09-21T02:50:50.045Z,10.62
2022-09-21T02:53:25.022Z,10.43
2022-09-21T02:56:02.971Z,10.60
2022-09-21T02:58:37.047Z,10.51
2022-09-21T03:01:08.923Z,10.47
2022-09-21T03:03:42.814Z,10.41
2022-09-21T03:06:12.203Z,10.40
2022-09-21T03:08:41.417Z,10.42
2022-09-21T03:11:13.076Z,10.19
2022-09-21T03:13:42.613Z,10.32
2022-09-21T03:16:14.506Z,10.29
2022-09-21T03:18:45.232Z,10.27
2022-09-21T03:21:14.885Z,10.17
2022-09-21T03:23:44.703Z,10.21
2022-09-21T03:26:13.620Z,10.21
2022-09-21T03:28:45.230Z,10.09
2022-09-21T03:31:17.548Z,10.13
2022-09-21T03:33:47.932Z,10.07
2022-09-21T03:36:19.648Z,10.05
2022-09-21T03:38:48.598Z,10.06
2022-09-21T03:41:17.463Z,10.04
2022-09-21T03:43:46.518Z,9.99
2022-09-21T03:46:17.570Z,9.97
2022-09-21T03:48:49.274Z,9.91
2022-09-21T03:51:18.237Z,9.89
2022-09-21T03:53:47.032Z,9.86
2022-09-21T03:56:16.394Z,9.92
2022-09-21T03:58:48.282Z,9.90
2022-09-21T04:01:17.091Z,9.95
2022-09-21T04:03:47.194Z,9.91
2022-09-21T04:06:15.941Z,9.84
2022-09-21T04:08:44.928Z,9.80
2022-09-21T04:11:18.565Z,9.82
2022-09-21T04:13:51.509Z,9.85
2022-09-21T04:16:20.668Z,9.84
2022-09-21T04:18:51.154Z,9.81
2022-09-21T04:21:22.843Z,9.74
2022-09-21T04:23:51.924Z,9.89
2022-09-21T04:26:26.016Z,9.90
2022-09-21T04:28:56.375Z,9.89
2022-09-21T04:31:26.101Z,9.88
2022-09-21T04:33:58.054Z,9.80
2022-09-21T04:36:30.280Z,9.90
2022-09-21T04:39:02.374Z,9.30
2022-09-21T04:41:31.732Z,9.88
2022-09-21T04:44:01.278Z,9.18
2022-09-21T04:46:30.265Z,9.98
2022-09-21T04:49:00.378Z,9.86
2022-09-21T04:51:29.057Z,9.74
2022-09-21T04:53:57.694Z,9.77
2022-09-21T04:56:26.413Z,9.68
2022-09-21T04:58:55.700Z,9.77
2022-09-21T05:02:15.556Z,9.92
2022-09-21T05:15:35.689Z,9.80
2022-09-21T16:00:26.827Z,18.03
2022-09-21T16:03:18.261Z,18.00
2022-09-21T16:05:54.468Z,18.03
2022-09-21T16:08:31.809Z,17.96
2022-09-21T16:11:15.232Z,17.89
2022-09-21T16:14:02.783Z,17.74
2022-09-21T16:17:21.269Z,17.68
2022-09-21T16:20:19.949Z,17.57
2022-09-21T16:22:50.736Z,17.69
2022-09-21T16:25:27.172Z,17.71
2022-09-21T16:27:58.645Z,17.57
2022-09-21T16:30:47.000Z,17.61
2022-09-21T16:33:44.839Z,17.47
2022-09-21T16:36:42.502Z,17.41
2022-09-21T16:39:15.856Z,17.42
2022-09-21T16:41:50.631Z,17.35
2022-09-21T16:44:23.004Z,17.28
2022-09-21T16:47:00.616Z,17.23
2022-09-21T16:49:36.119Z,17.17
2022-09-21T16:52:07.438Z,16.63
2022-09-21T16:54:38.565Z,17.07
2022-09-21T16:57:09.405Z,17.02
2022-09-21T16:59:40.531Z,16.85
2022-09-21T17:02:12.369Z,16.86
2022-09-21T17:04:46.024Z,16.78
2022-09-21T17:07:19.077Z,16.82
2022-09-21T17:09:48.273Z,16.68
2022-09-21T17:12:25.354Z,16.66
2022-09-21T17:14:57.769Z,16.59
2022-09-21T17:17:29.738Z,16.52
2022-09-21T17:20:03.722Z,16.58
2022-09-21T17:22:35.641Z,16.55
2022-09-21T17:25:04.892Z,16.44
2022-09-21T17:27:34.467Z,16.34
2022-09-21T17:30:03.869Z,16.12
2022-09-21T17:32:38.595Z,16.07
2022-09-21T17:35:18.618Z,15.86
2022-09-21T17:37:47.726Z,15.93
2022-09-21T17:40:17.374Z,15.82
2022-09-21T17:42:48.452Z,15.80
2022-09-21T17:45:27.051Z,15.75
2022-09-21T17:47:59.207Z,15.76
2022-09-21T17:50:36.135Z,15.65
2022-09-21T17:53:22.752Z,15.58
2022-09-21T17:55:59.678Z,15.51
2022-09-21T17:58:45.829Z,14.72
2022-09-21T18:01:27.571Z,15.36
2022-09-21T18:03:59.814Z,15.33
2022-09-21T18:06:33.224Z,15.47
2022-09-21T18:09:04.319Z,15.29
2022-09-21T18:12:14.542Z,15.22
2022-09-21T18:14:54.816Z,15.02
2022-09-21T18:17:40.561Z,14.80
2022-09-21T18:20:22.392Z,14.93
2022-09-21T18:23:05.245Z,14.80
2022-09-21T18:25:47.685Z,14.78
2022-09-21T18:28:23.761Z,14.57
2022-09-21T18:31:13.147Z,14.63
2022-09-21T18:33:47.890Z,14.52
2022-09-21T18:36:26.381Z,13.64
2022-09-21T18:39:15.931Z,14.39
2022-09-21T18:41:57.276Z,14.35
2022-09-21T18:44:36.407Z,14.21
2022-09-21T18:47:12.291Z,14.12
2022-09-21T18:49:58.857Z,14.12
2022-09-21T18:52:40.478Z,13.94
2022-09-21T18:55:26.637Z,13.95
2022-09-21T18:57:57.304Z,13.94
2022-09-21T19:00:31.575Z,13.83
2022-09-21T19:03:18.866Z,13.85
2022-09-21T19:06:00.688Z,13.79
2022-09-21T19:08:38.658Z,13.69
2022-09-21T19:11:18.497Z,13.71
2022-09-21T19:13:54.047Z,13.63
2022-09-21T19:16:32.719Z,13.60
2022-09-21T19:19:18.745Z,13.46
2022-09-21T19:21:54.778Z,13.56
2022-09-21T19:24:30.511Z,13.41
2022-09-21T19:27:14.069Z,13.51
2022-09-21T19:30:03.842Z,13.42
2022-09-21T19:32:44.984Z,13.39
2022-09-21T19:35:19.139Z,13.23
2022-09-21T19:37:48.791Z,12.52
2022-09-21T19:40:21.618Z,13.16
2022-09-21T19:43:20.784Z,13.13
2022-09-21T19:46:07.268Z,13.16
2022-09-21T19:48:42.880Z,13.12
2022-09-21T19:51:18.356Z,13.03
2022-09-21T19:54:11.230Z,13.08
2022-09-21T19:57:05.499Z,13.03
2022-09-21T19:59:44.040Z,12.89
2022-09-21T20:02:16.835Z,13.01
2022-09-21T20:04:55.913Z,12.97
2022-09-21T20:07:38.064Z,12.88
2022-09-21T20:10:26.087Z,12.96
2022-09-21T20:13:07.405Z,12.97
2022-09-21T20:15:42.409Z,12.90
2022-09-21T20:18:23.083Z,12.89
2022-09-21T20:20:53.028Z,12.85
2022-09-21T20:23:24.440Z,12.75
2022-09-21T20:25:57.713Z,12.72
2022-09-21T20:28:27.854Z,12.55
2022-09-21T20:30:58.599Z,12.62
2022-09-21T20:33:34.131Z,12.56
2022-09-21T20:36:05.958Z,12.50
2022-09-21T20:38:37.011Z,12.52
2022-09-21T20:41:10.797Z,11.70
2022-09-21T20:43:42.156Z,12.56
2022-09-21T20:46:15.554Z,12.56
2022-09-21T20:48:44.463Z,12.53
2022-09-21T20:51:19.636Z,12.47
2022-09-21T20:53:54.102Z,12.51
2022-09-21T20:56:26.473Z,12.43
2022-09-21T20:58:56.611Z,12.41
2022-09-21T21:01:28.260Z,12.57
2022-09-21T21:04:03.613Z,12.43
2022-09-21T21:06:40.906Z,12.38
2022-09-21T21:09:11.151Z,12.30
2022-09-21T21:11:41.379Z,12.31
2022-09-21T21:14:10.316Z,11.89
2022-09-21T21:16:40.796Z,12.21
2022-09-21T21:19:15.008Z,11.96
2022-09-21T21:21:45.073Z,12.09
2022-09-21T21:24:55.336Z,11.99
2022-09-21T21:27:26.104Z,11.99
2022-09-21T21:29:56.399Z,11.95
2022-09-21T21:32:28.002Z,11.88
2022-09-21T21:34:57.253Z,11.87
2022-09-21T21:37:29.302Z,11.78
2022-09-21T21:39:59.455Z,12.05
2022-09-21T21:42:29.542Z,12.02
2022-09-21T21:44:59.269Z,11.92
2022-09-21T21:47:44.611Z,11.90
2022-09-21T21:50:14.144Z,11.84
2022-09-21T21:52:47.783Z,11.79
2022-09-21T21:55:17.166Z,11.67
2022-09-21T21:57:45.852Z,11.68
2022-09-21T22:00:16.873Z,11.68
2022-09-21T22:02:47.115Z,11.64
2022-09-21T22:05:16.180Z,11.62
2022-09-21T22:07:44.863Z,11.56
2022-09-21T22:10:16.329Z,11.52
2022-09-21T22:12:47.099Z,11.45
2022-09-21T22:15:15.885Z,11.42
2022-09-21T22:17:50.945Z,11.43
2022-09-21T22:20:19.513Z,11.40
2022-09-21T22:22:48.544Z,11.36
2022-09-21T22:25:18.270Z,11.32
2022-09-21T22:27:47.069Z,11.29
2022-09-21T22:30:18.560Z,11.17
2022-09-21T22:32:49.946Z,11.22
2022-09-21T22:35:19.585Z,11.21
2022-09-21T22:37:52.980Z,11.22
2022-09-21T22:40:22.948Z,11.18
2022-09-21T22:42:51.620Z,11.04
2022-09-21T22:45:22.202Z,11.16
2022-09-21T22:47:53.789Z,11.19
2022-09-21T22:50:24.251Z,11.17
2022-09-21T22:52:56.462Z,11.01
2022-09-21T22:55:25.424Z,11.03
2022-09-21T22:57:56.159Z,10.85
2022-09-21T23:00:27.088Z,10.95
2022-09-21T23:03:00.445Z,11.07
2022-09-21T23:05:29.137Z,11.16
2022-09-21T23:07:58.220Z,11.17
2022-09-21T23:10:27.746Z,10.83
2022-09-21T23:13:03.180Z,10.97
2022-09-21T23:15:32.404Z,10.84
2022-09-21T23:18:02.568Z,10.94
2022-09-21T23:20:31.229Z,11.05
2022-09-21T23:23:00.250Z,10.96
2022-09-21T23:25:28.951Z,10.97
2022-09-21T23:28:00.551Z,10.91
2022-09-21T23:30:29.451Z,10.81
2022-09-21T23:32:59.199Z,11.07
2022-09-21T23:35:30.568Z,11.20
2022-09-21T23:38:00.194Z,11.09
2022-09-21T23:40:29.207Z,11.00
2022-09-21T23:42:59.272Z,10.82
2022-09-21T23:45:27.872Z,10.73
2022-09-21T23:47:56.588Z,10.69
2022-09-21T23:50:25.221Z,10.64
2022-09-21T23:52:55.655Z,10.60
2022-09-21T23:55:27.119Z,10.58
2022-09-21T23:57:59.348Z,10.60
